Time;durP1;ratioP1;P1;durP2;ratioP2;P2;SDS_P1;SDS_P2;PMS_P1;PMS_P2;Temp;Humidity;BMP_temperature;BMP_pressure;BME280_temperature;BME280_humidity;BME280_pressure;Samples;Min_cycle;Max_cycle;Signal;HPM_P1;HPM_P2
2023/01/09 00:01:00;;;;;;;17.85;9.98;;;;;;;;;;5029177;28;20041;-45
2023/01/09 00:03:25;;;;;;;17.88;10.10;;;;;;;;;;5027967;28;20043;-47
2023/01/09 00:05:51;;;;;;;21.85;11.13;;;;;;;;;;5028042;28;20090;-47
2023/01/09 00:08:17;;;;;;;19.45;11.27;;;;;;;;;;5028652;28;20061;-44
2023/01/09 00:10:44;;;;;;;19.40;10.95;;;;;;;;;;5028017;28;20048;-51
2023/01/09 00:13:12;;;;;;;22.67;11.57;;;;;;;;;;5029201;28;20042;-43
2023/01/09 00:15:39;;;;;;;27.00;12.02;;;;;;;;;;5030061;28;20497;-45
2023/01/09 00:18:05;;;;;;;21.67;11.98;;;;;;;;;;5026109;28;20034;-44
2023/01/09 00:20:30;;;;;;;21.33;11.82;;;;;;;;;;5029532;28;20026;-45
2023/01/09 00:22:56;;;;;;;20.50;11.98;;;;;;;;;;5025948;28;20170;-46
2023/01/09 00:25:21;;;;;;;26.13;12.18;;;;;;;;;;5028807;28;20037;-49
2023/01/09 00:27:47;;;;;;;19.05;11.63;;;;;;;;;;5028709;28;20034;-49
2023/01/09 00:30:12;;;;;;;23.15;11.95;;;;;;;;;;5028880;28;20045;-43
2023/01/09 00:32:38;;;;;;;27.67;12.65;;;;;;;;;;5028289;28;20045;-43
2023/01/09 00:35:04;;;;;;;16.85;9.90;;;;;;;;;;5029176;28;20037;-51
2023/01/09 00:37:30;;;;;;;21.88;11.35;;;;;;;;;;5026837;28;20118;-49
2023/01/09 00:39:55;;;;;;;18.05;9.82;;;;;;;;;;5025009;28;20041;-49
2023/01/09 00:42:25;;;;;;;15.57;8.57;;;;;;;;;;5026782;28;20025;-51
2023/01/09 00:44:57;;;;;;;17.42;8.65;;;;;;;;;;5029082;28;20781;-47
2023/01/09 00:47:31;;;;;;;18.23;7.40;;;;;;;;;;5029959;28;20037;-50
2023/01/09 00:50:04;;;;;;;17.35;7.95;;;;;;;;;;5030953;28;20021;-49
2023/01/09 00:52:32;;;;;;;13.65;7.07;;;;;;;;;;5028992;28;20044;-49
2023/01/09 00:54:58;;;;;;;24.23;7.28;;;;;;;;;;5025764;28;20026;-50
2023/01/09 00:57:23;;;;;;;16.30;8.10;;;;;;;;;;5029617;28;20036;-50
2023/01/09 00:59:50;;;;;;;15.52;7.38;;;;;;;;;;5027287;28;20406;-48
2023/01/09 01:02:16;;;;;;;16.55;7.75;;;;;;;;;;5025024;28;20038;-48
2023/01/09 01:07:37;;;;;;;15.65;7.80;;;;;;;;;;5026704;28;20037;-50
2023/01/09 01:10:04;;;;;;;13.80;7.75;;;;;;;;;;5027871;28;20033;-51
2023/01/09 01:12:29;;;;;;;15.50;7.05;;;;;;;;;;5026469;28;20052;-46
2023/01/09 01:14:55;;;;;;;12.18;6.53;;;;;;;;;;5026512;28;20390;-50
2023/01/09 01:17:20;;;;;;;9.13;6.05;;;;;;;;;;5026874;28;20061;-46
2023/01/09 01:19:46;;;;;;;16.85;7.50;;;;;;;;;;5028122;28;20037;-47
2023/01/09 01:22:11;;;;;;;13.43;7.43;;;;;;;;;;5027695;28;20477;-49
2023/01/09 01:24:36;;;;;;;11.30;6.97;;;;;;;;;;5028253;28;20492;-49
2023/01/09 01:27:02;;;;;;;11.98;7.25;;;;;;;;;;5027397;28;20026;-50
2023/01/09 01:29:27;;;;;;;17.67;7.82;;;;;;;;;;5026275;28;20049;-51
2023/01/09 01:31:53;;;;;;;14.80;8.07;;;;;;;;;;5023902;28;20140;-50
2023/01/09 01:34:18;;;;;;;10.95;7.00;;;;;;;;;;5027913;28;20052;-50
2023/01/09 01:36:44;;;;;;;19.10;8.35;;;;;;;;;;5027147;28;20028;-44
2023/01/09 01:39:09;;;;;;;14.25;7.43;;;;;;;;;;5027824;28;20079;-48
2023/01/09 01:41:36;;;;;;;18.40;7.72;;;;;;;;;;5027536;28;20477;-47
2023/01/09 01:44:05;;;;;;;17.25;7.82;;;;;;;;;;5026337;28;20440;-51
2023/01/09 01:46:31;;;;;;;13.70;7.47;;;;;;;;;;5025132;28;20052;-48
2023/01/09 01:49:09;;;;;;;18.67;8.07;;;;;;;;;;5023681;28;20180;-48
2023/01/09 01:51:39;;;;;;;17.52;7.68;;;;;;;;;;5026841;28;20032;-48
2023/01/09 01:54:12;;;;;;;16.00;8.27;;;;;;;;;;5029180;28;20338;-45
2023/01/09 01:56:47;;;;;;;15.93;8.00;;;;;;;;;;5027800;28;20026;-46
2023/01/09 01:59:18;;;;;;;14.32;7.88;;;;;;;;;;5029323;28;20220;-47
2023/01/09 02:01:48;;;;;;;21.30;8.05;;;;;;;;;;5023949;28;20393;-45
2023/01/09 02:04:14;;;;;;;14.60;8.35;;;;;;;;;;5024400;28;20387;-46
2023/01/09 02:06:41;;;;;;;13.05;7.95;;;;;;;;;;5025592;28;20028;-43
2023/01/09 02:09:07;;;;;;;18.85;7.80;;;;;;;;;;5026273;28;20056;-46
2023/01/09 02:11:33;;;;;;;15.02;7.30;;;;;;;;;;5027414;28;20029;-47
2023/01/09 02:14:00;;;;;;;22.23;7.22;;;;;;;;;;5025774;28;20048;-43
2023/01/09 02:17:02;;;;;;;13.25;7.50;;;;;;;;;;5025810;28;20099;-44
2023/01/09 02:19:31;;;;;;;16.20;7.85;;;;;;;;;;5023594;28;20057;-47
2023/01/09 02:22:08;;;;;;;14.57;7.38;;;;;;;;;;5038943;28;20701;-49
2023/01/09 02:24:56;;;;;;;11.50;7.00;;;;;;;;;;5025641;28;20049;-43
2023/01/09 02:27:33;;;;;;;15.13;8.13;;;;;;;;;;5023373;28;20031;-46
2023/01/09 02:30:17;;;;;;;14.57;7.38;;;;;;;;;;5004739;28;20032;-47
2023/01/09 02:32:52;;;;;;;12.35;6.97;;;;;;;;;;5011500;28;20046;-45
2023/01/09 02:35:38;;;;;;;12.50;6.97;;;;;;;;;;5025463;28;20030;-48
2023/01/09 02:38:34;;;;;;;11.40;6.75;;;;;;;;;;5022150;28;20077;-45
2023/01/09 02:41:34;;;;;;;14.75;7.00;;;;;;;;;;5024332;28;20417;-44
2023/01/09 02:44:21;;;;;;;11.45;5.82;;;;;;;;;;5015537;28;20041;-45
2023/01/09 02:46:47;;;;;;;8.45;5.78;;;;;;;;;;5026352;28;20042;-43
2023/01/09 02:49:15;;;;;;;10.25;5.57;;;;;;;;;;5025214;28;20052;-44
2023/01/09 02:52:10;;;;;;;8.50;5.50;;;;;;;;;;5022745;28;20378;-44
2023/01/09 02:54:54;;;;;;;9.85;5.45;;;;;;;;;;5024728;28;20044;-45
2023/01/09 02:57:48;;;;;;;8.25;4.78;;;;;;;;;;5023319;28;20470;-47
2023/01/09 03:00:46;;;;;;;9.15;4.65;;;;;;;;;;5006190;28;20044;-48
2023/01/09 03:03:20;;;;;;;9.88;5.30;;;;;;;;;;5001559;28;20053;-46
2023/01/09 03:05:56;;;;;;;12.52;5.10;;;;;;;;;;5006449;28;20034;-46
2023/01/09 03:08:44;;;;;;;7.55;4.93;;;;;;;;;;5006421;28;20046;-44
2023/01/09 03:11:10;;;;;;;6.28;4.97;;;;;;;;;;5003942;28;20577;-45
2023/01/09 03:13:45;;;;;;;10.05;4.93;;;;;;;;;;5006708;28;20088;-46
2023/01/09 03:16:15;;;;;;;9.40;4.57;;;;;;;;;;5004778;28;20040;-47
2023/01/09 03:18:42;;;;;;;8.00;4.75;;;;;;;;;;5007066;28;20410;-45
2023/01/09 03:21:10;;;;;;;7.80;4.47;;;;;;;;;;5009131;28;20030;-45
2023/01/09 03:23:45;;;;;;;8.10;4.30;;;;;;;;;;5021119;28;20034;-49
2023/01/09 03:26:11;;;;;;;8.77;4.22;;;;;;;;;;5028630;28;20025;-51
2023/01/09 03:28:36;;;;;;;7.53;4.00;;;;;;;;;;5028721;28;20118;-46
2023/01/09 03:31:02;;;;;;;6.97;3.65;;;;;;;;;;5030524;28;20036;-44
2023/01/09 03:33:27;;;;;;;7.35;3.60;;;;;;;;;;5029052;28;20477;-45
2023/01/09 03:35:53;;;;;;;5.28;3.47;;;;;;;;;;5031053;28;20049;-43
2023/01/09 03:38:18;;;;;;;5.95;3.75;;;;;;;;;;5029531;28;20053;-44
2023/01/09 03:40:44;;;;;;;3.83;3.40;;;;;;;;;;5032901;28;20095;-45
2023/01/09 03:43:09;;;;;;;6.55;3.83;;;;;;;;;;5026737;28;20037;-45
2023/01/09 03:45:34;;;;;;;9.48;3.55;;;;;;;;;;5029054;28;20481;-45
2023/01/09 03:48:00;;;;;;;4.47;3.17;;;;;;;;;;5028701;28;20071;-45
2023/01/09 03:50:25;;;;;;;6.47;3.08;;;;;;;;;;5028800;28;20101;-48
2023/01/09 03:52:51;;;;;;;5.82;3.20;;;;;;;;;;5026674;28;20152;-43
2023/01/09 03:55:16;;;;;;;5.65;2.92;;;;;;;;;;5031667;28;20033;-43
2023/01/09 03:57:42;;;;;;;4.40;3.08;;;;;;;;;;5026768;28;20040;-48
2023/01/09 04:00:08;;;;;;;4.32;2.72;;;;;;;;;;5027447;28;20080;-47
2023/01/09 04:02:33;;;;;;;3.97;2.50;;;;;;;;;;5030942;28;20045;-49
2023/01/09 04:04:59;;;;;;;3.78;2.28;;;;;;;;;;5028189;28;20010;-46
2023/01/09 04:07:24;;;;;;;3.47;2.47;;;;;;;;;;5028748;28;21879;-44
2023/01/09 04:09:49;;;;;;;3.42;2.10;;;;;;;;;;5028748;28;20021;-44
2023/01/09 04:12:15;;;;;;;3.25;2.00;;;;;;;;;;5029591;28;20449;-45
2023/01/09 04:14:40;;;;;;;3.22;1.80;;;;;;;;;;5025100;28;20080;-45
2023/01/09 04:17:06;;;;;;;3.25;1.95;;;;;;;;;;5027738;28;20474;-43
2023/01/09 04:19:31;;;;;;;3.45;2.00;;;;;;;;;;5029302;28;20021;-46
2023/01/09 04:21:56;;;;;;;4.03;2.08;;;;;;;;;;5030698;28;20406;-45
2023/01/09 04:24:22;;;;;;;4.70;1.88;;;;;;;;;;5027914;28;20036;-48
2023/01/09 04:26:47;;;;;;;2.97;2.05;;;;;;;;;;5029446;28;20021;-46
2023/01/09 04:29:12;;;;;;;2.97;1.80;;;;;;;;;;5025982;28;20082;-50
2023/01/09 04:31:38;;;;;;;2.20;2.00;;;;;;;;;;5028079;28;20041;-47
2023/01/09 04:34:03;;;;;;;3.08;2.25;;;;;;;;;;5027027;28;20154;-47
2023/01/09 04:36:28;;;;;;;1.42;1.33;;;;;;;;;;5029299;28;20084;-45
2023/01/09 04:38:54;;;;;;;1.85;1.75;;;;;;;;;;5028889;28;20520;-45
2023/01/09 04:42:01;;;;;;;1.85;1.35;;;;;;;;;;5042434;28;20545;-43
2023/01/09 04:44:08;;;;;;;3.60;1.67;;;;;;;;;;5023338;28;20140;-50
2023/01/09 04:46:33;;;;;;;1.38;1.20;;;;;;;;;;5027109;28;20112;-46
2023/01/09 04:48:58;;;;;;;1.25;1.10;;;;;;;;;;5029438;28;20087;-50
2023/01/09 04:51:24;;;;;;;2.40;1.42;;;;;;;;;;5028825;28;20387;-48
2023/01/09 04:53:49;;;;;;;3.03;1.15;;;;;;;;;;5026136;28;20084;-46
2023/01/09 04:56:14;;;;;;;3.72;1.15;;;;;;;;;;5026097;28;20482;-44
2023/01/09 04:58:40;;;;;;;3.80;1.38;;;;;;;;;;5025791;28;20091;-45
2023/01/09 05:01:05;;;;;;;4.75;1.30;;;;;;;;;;5026767;28;20040;-48
2023/01/09 05:03:30;;;;;;;1.83;1.10;;;;;;;;;;5027970;28;20541;-46
2023/01/09 05:05:56;;;;;;;2.47;1.08;;;;;;;;;;5028342;28;20025;-43
2023/01/09 05:08:21;;;;;;;1.80;1.02;;;;;;;;;;5028104;28;20048;-46
2023/01/09 05:10:46;;;;;;;1.15;0.80;;;;;;;;;;5026110;28;20422;-48
2023/01/09 05:13:12;;;;;;;2.33;0.90;;;;;;;;;;5022603;28;20034;-51
2023/01/09 05:15:37;;;;;;;3.08;1.00;;;;;;;;;;5022859;28;20033;-44
2023/01/09 05:18:03;;;;;;;3.13;1.10;;;;;;;;;;5029486;28;20164;-45
2023/01/09 05:20:28;;;;;;;2.40;1.00;;;;;;;;;;5026755;28;20064;-43
2023/01/09 05:22:53;;;;;;;1.30;0.90;;;;;;;;;;5022411;28;20041;-45
2023/01/09 05:25:19;;;;;;;3.90;1.25;;;;;;;;;;5028209;28;20067;-48
2023/01/09 05:27:45;;;;;;;1.83;1.00;;;;;;;;;;5023536;28;20041;-46
2023/01/09 05:30:12;;;;;;;2.13;1.00;;;;;;;;;;5029731;28;20039;-43
2023/01/09 05:32:37;;;;;;;5.30;1.35;;;;;;;;;;5023116;28;20042;-44
2023/01/09 05:35:03;;;;;;;3.60;0.88;;;;;;;;;;5027860;28;20094;-46
2023/01/09 05:37:28;;;;;;;4.07;1.30;;;;;;;;;;5026735;28;20064;-48
2023/01/09 05:39:54;;;;;;;3.92;1.40;;;;;;;;;;5029024;28;20025;-49
2023/01/09 05:42:19;;;;;;;2.78;0.90;;;;;;;;;;5026566;28;20030;-45
2023/01/09 05:44:45;;;;;;;2.92;1.00;;;;;;;;;;5027468;28;20478;-43
2023/01/09 05:47:10;;;;;;;3.05;1.27;;;;;;;;;;5023786;28;20030;-48
2023/01/09 05:49:35;;;;;;;2.10;1.05;;;;;;;;;;5024382;28;20045;-45
2023/01/09 05:52:01;;;;;;;5.40;1.00;;;;;;;;;;5028737;28;20030;-50
2023/01/09 05:54:26;;;;;;;2.13;0.98;;;;;;;;;;5026871;28;20046;-49
2023/01/09 05:56:51;;;;;;;1.27;0.77;;;;;;;;;;5027586;28;20025;-49
2023/01/09 05:59:17;;;;;;;2.80;0.93;;;;;;;;;;5028635;28;20486;-46
2023/01/09 06:01:42;;;;;;;2.38;1.05;;;;;;;;;;5028032;28;20112;-51
2023/01/09 06:04:08;;;;;;;2.83;0.93;;;;;;;;;;5021313;28;20049;-50
2023/01/09 06:06:33;;;;;;;2.53;0.90;;;;;;;;;;5030197;28;20056;-44
2023/01/09 06:08:58;;;;;;;5.28;0.90;;;;;;;;;;5025993;28;20044;-47
2023/01/09 06:11:24;;;;;;;5.95;1.50;;;;;;;;;;5030361;28;20032;-44
2023/01/09 06:13:49;;;;;;;2.22;1.00;;;;;;;;;;5027811;28;20096;-47
2023/01/09 06:16:15;;;;;;;4.75;1.00;;;;;;;;;;5026172;28;20026;-48
2023/01/09 06:18:40;;;;;;;2.65;1.08;;;;;;;;;;5032085;28;20037;-45
2023/01/09 06:21:05;;;;;;;2.17;0.85;;;;;;;;;;5028262;28;20032;-50
2023/01/09 06:23:31;;;;;;;1.63;0.70;;;;;;;;;;5021024;28;20083;-49
2023/01/09 06:25:56;;;;;;;3.65;1.00;;;;;;;;;;5026109;28;21047;-48
2023/01/09 06:28:21;;;;;;;1.20;1.00;;;;;;;;;;5024557;28;20041;-48
2023/01/09 06:30:51;;;;;;;4.18;1.50;;;;;;;;;;5026796;28;20040;-47
2023/01/09 06:33:16;;;;;;;3.17;1.10;;;;;;;;;;5032881;28;20041;-50
2023/01/09 06:35:42;;;;;;;4.32;0.95;;;;;;;;;;5030254;28;20034;-48
2023/01/09 06:38:07;;;;;;;2.63;1.20;;;;;;;;;;5028621;28;20069;-44
2023/01/09 06:40:33;;;;;;;5.82;0.98;;;;;;;;;;5021701;28;20041;-51
2023/01/09 06:42:58;;;;;;;2.22;1.00;;;;;;;;;;5027708;28;20041;-46
2023/01/09 06:45:23;;;;;;;1.88;1.10;;;;;;;;;;5031324;28;20018;-49
2023/01/09 06:47:49;;;;;;;2.33;1.23;;;;;;;;;;5026504;28;20042;-49
2023/01/09 06:50:15;;;;;;;1.45;1.02;;;;;;;;;;5025869;28;20029;-48
2023/01/09 06:52:40;;;;;;;4.30;1.20;;;;;;;;;;5037209;28;20040;-46
2023/01/09 06:55:07;;;;;;;7.28;1.60;;;;;;;;;;5036853;28;20032;-49
2023/01/09 06:57:32;;;;;;;1.83;1.23;;;;;;;;;;5025875;28;20104;-50
2023/01/09 06:59:58;;;;;;;2.67;1.30;;;;;;;;;;5029843;28;20466;-50
2023/01/09 07:02:24;;;;;;;2.30;1.38;;;;;;;;;;5022842;28;20120;-47
2023/01/09 07:04:49;;;;;;;4.00;2.00;;;;;;;;;;5035267;28;20208;-51
2023/01/09 07:07:15;;;;;;;5.22;2.58;;;;;;;;;;5031591;28;20448;-51
2023/01/09 07:09:40;;;;;;;7.53;2.20;;;;;;;;;;5032076;28;20028;-51
2023/01/09 07:12:06;;;;;;;5.55;2.42;;;;;;;;;;5034135;28;20466;-46
2023/01/09 07:14:31;;;;;;;7.00;2.42;;;;;;;;;;5033736;28;20061;-46
2023/01/09 07:16:57;;;;;;;4.38;2.28;;;;;;;;;;5030078;28;20029;-45
2023/01/09 07:19:23;;;;;;;6.88;2.67;;;;;;;;;;5021313;28;20057;-45
2023/01/09 07:21:48;;;;;;;6.43;2.50;;;;;;;;;;5018698;28;20021;-44
2023/01/09 07:24:13;;;;;;;8.15;2.10;;;;;;;;;;5029919;28;20255;-44
2023/01/09 07:26:39;;;;;;;6.05;2.30;;;;;;;;;;5024159;28;20458;-49
2023/01/09 07:29:04;;;;;;;4.72;2.03;;;;;;;;;;5024517;28;20046;-50
2023/01/09 07:31:30;;;;;;;7.90;1.50;;;;;;;;;;5030348;28;20021;-48
2023/01/09 07:33:55;;;;;;;5.03;1.35;;;;;;;;;;5029429;28;20050;-52
2023/01/09 07:36:20;;;;;;;6.22;1.10;;;;;;;;;;5024628;28;20061;-50
2023/01/09 07:38:46;;;;;;;3.70;2.22;;;;;;;;;;5029399;28;20047;-47
2023/01/09 07:41:11;;;;;;;3.00;1.42;;;;;;;;;;5029832;28;20112;-45
2023/01/09 07:43:37;;;;;;;9.55;1.73;;;;;;;;;;5029977;28;20045;-47
2023/01/09 07:46:03;;;;;;;7.95;2.85;;;;;;;;;;5034936;28;20033;-47
2023/01/09 07:48:28;;;;;;;18.30;5.40;;;;;;;;;;5030680;28;20041;-51
2023/01/09 07:50:54;;;;;;;20.85;5.72;;;;;;;;;;5033070;28;20025;-45
2023/01/09 07:53:19;;;;;;;12.00;4.63;;;;;;;;;;5025452;28;20041;-47
2023/01/09 07:55:44;;;;;;;12.13;4.13;;;;;;;;;;5032009;28;20021;-50
2023/01/09 07:58:10;;;;;;;9.77;3.55;;;;;;;;;;5032650;28;20056;-52
2023/01/09 08:00:35;;;;;;;7.68;3.50;;;;;;;;;;5030565;28;20536;-45
2023/01/09 08:03:01;;;;;;;7.22;2.83;;;;;;;;;;5028823;28;20044;-49
2023/01/09 08:05:26;;;;;;;10.45;2.47;;;;;;;;;;5031689;28;20028;-47
2023/01/09 08:07:51;;;;;;;7.97;1.95;;;;;;;;;;5028202;28;20560;-45
2023/01/09 08:10:18;;;;;;;14.20;2.33;;;;;;;;;;5028849;28;20378;-48
2023/01/09 08:12:44;;;;;;;5.57;1.52;;;;;;;;;;5029202;28;20053;-47
2023/01/09 08:15:10;;;;;;;4.78;2.05;;;;;;;;;;5032294;28;20033;-44
2023/01/09 08:17:36;;;;;;;6.47;1.58;;;;;;;;;;5028031;28;20132;-47
2023/01/09 08:20:02;;;;;;;3.00;1.30;;;;;;;;;;5029043;28;20079;-49
2023/01/09 08:22:27;;;;;;;2.42;1.15;;;;;;;;;;5024933;28;20089;-46
2023/01/09 08:24:53;;;;;;;6.40;1.75;;;;;;;;;;5030696;28;20021;-44
2023/01/09 08:27:18;;;;;;;3.22;1.27;;;;;;;;;;5026921;28;20052;-43
2023/01/09 08:29:43;;;;;;;4.57;1.15;;;;;;;;;;5025763;28;20036;-47
2023/01/09 08:32:09;;;;;;;4.05;1.50;;;;;;;;;;5026030;28;20044;-43
2023/01/09 08:34:34;;;;;;;4.47;1.50;;;;;;;;;;5030120;28;20450;-43
2023/01/09 08:37:00;;;;;;;4.47;2.28;;;;;;;;;;5030268;28;20039;-43
2023/01/09 08:39:25;;;;;;;12.07;1.75;;;;;;;;;;5029388;28;20041;-44
2023/01/09 08:47:22;;;;;;;4.25;1.67;;;;;;;;;;5024661;28;20035;-50
2023/01/09 08:49:47;;;;;;;4.25;1.73;;;;;;;;;;5027004;28;20025;-50
2023/01/09 08:52:13;;;;;;;4.28;1.13;;;;;;;;;;5029326;28;20382;-44
2023/01/09 08:54:38;;;;;;;4.13;1.50;;;;;;;;;;5026669;28;20394;-45
2023/01/09 08:57:05;;;;;;;2.45;1.20;;;;;;;;;;5028919;28;20057;-49
2023/01/09 08:59:30;;;;;;;6.40;1.35;;;;;;;;;;5028416;28;20088;-45
2023/01/09 09:01:57;;;;;;;6.63;1.42;;;;;;;;;;5033329;28;20026;-47
2023/01/09 09:04:22;;;;;;;1.80;0.80;;;;;;;;;;5029446;28;20036;-44
2023/01/09 09:06:47;;;;;;;5.20;1.30;;;;;;;;;;5030331;28;20451;-44
2023/01/09 09:09:13;;;;;;;3.53;0.95;;;;;;;;;;5028525;28;20045;-45
2023/01/09 09:11:38;;;;;;;5.20;1.00;;;;;;;;;;5029113;28;20393;-45
2023/01/09 09:16:49;;;;;;;7.00;2.35;;;;;;;;;;5026256;28;20576;-45
2023/01/09 09:19:14;;;;;;;12.20;2.20;;;;;;;;;;5029182;28;20059;-45
2023/01/09 09:21:39;;;;;;;4.50;1.90;;;;;;;;;;5028919;28;20104;-44
2023/01/09 09:24:05;;;;;;;4.30;2.03;;;;;;;;;;5027841;28;20041;-47
2023/01/09 09:26:31;;;;;;;7.90;2.35;;;;;;;;;;5028672;28;20018;-44
2023/01/09 09:28:57;;;;;;;3.08;2.20;;;;;;;;;;5025386;28;20041;-44
2023/01/09 09:31:23;;;;;;;10.50;3.83;;;;;;;;;;5031660;28;20030;-46
2023/01/09 09:33:48;;;;;;;10.48;2.15;;;;;;;;;;5027666;28;20128;-44
2023/01/09 09:36:13;;;;;;;4.53;2.00;;;;;;;;;;5028344;28;20144;-43
2023/01/09 09:38:39;;;;;;;13.60;7.30;;;;;;;;;;5025317;28;20033;-46
2023/01/09 09:44:45;;;;;;;7.68;3.75;;;;;;;;;;5025134;28;20052;-49
2023/01/09 09:47:23;;;;;;;5.57;3.25;;;;;;;;;;5026005;28;20041;-47
2023/01/09 09:50:04;;;;;;;5.68;1.52;;;;;;;;;;5026705;28;20079;-47
2023/01/09 09:52:39;;;;;;;3.13;1.15;;;;;;;;;;5023093;28;20045;-48
2023/01/09 09:55:16;;;;;;;2.10;1.20;;;;;;;;;;5027215;28;20553;-45
2023/01/09 09:57:43;;;;;;;2.65;1.17;;;;;;;;;;5025060;28;20069;-44
2023/01/09 10:00:16;;;;;;;2.20;0.98;;;;;;;;;;5027465;28;20041;-45
2023/01/09 10:02:49;;;;;;;3.22;1.08;;;;;;;;;;5026691;28;20052;-42
2023/01/09 10:05:20;;;;;;;2.83;1.15;;;;;;;;;;5029815;28;20029;-49
2023/01/09 10:07:49;;;;;;;2.00;0.98;;;;;;;;;;5027813;28;20390;-47
2023/01/09 10:10:23;;;;;;;4.05;1.35;;;;;;;;;;5028739;28;20036;-43
2023/01/09 10:12:55;;;;;;;3.45;1.27;;;;;;;;;;5027659;28;20512;-46
2023/01/09 10:15:43;;;;;;;3.92;1.42;;;;;;;;;;5026194;28;20035;-46
2023/01/09 10:18:18;;;;;;;3.30;1.48;;;;;;;;;;5026234;28;20085;-48
2023/01/09 10:20:51;;;;;;;2.85;1.80;;;;;;;;;;5027293;28;20063;-41
2023/01/09 10:23:20;;;;;;;4.72;1.50;;;;;;;;;;5026177;28;20088;-46
2023/01/09 10:26:10;;;;;;;8.50;2.47;;;;;;;;;;5027133;28;20022;-46
2023/01/09 10:29:13;;;;;;;8.35;3.70;;;;;;;;;;5026450;28;20034;-51
2023/01/09 10:32:00;;;;;;;4.10;1.85;;;;;;;;;;5026052;28;20041;-52
2023/01/09 10:34:43;;;;;;;6.95;1.95;;;;;;;;;;5023415;28;20144;-52
2023/01/09 10:37:24;;;;;;;3.05;1.23;;;;;;;;;;5029531;28;20029;-43
2023/01/09 10:40:01;;;;;;;3.60;1.23;;;;;;;;;;5027509;28;20061;-47
2023/01/09 10:42:37;;;;;;;3.25;1.50;;;;;;;;;;5026159;28;20044;-48
2023/01/09 10:45:25;;;;;;;4.78;1.40;;;;;;;;;;5024963;28;20033;-47
2023/01/09 10:48:00;;;;;;;5.72;1.88;;;;;;;;;;5022089;28;20037;-49
2023/01/09 10:50:36;;;;;;;3.25;1.77;;;;;;;;;;5027154;28;20041;-48
2023/01/09 10:53:18;;;;;;;7.03;1.73;;;;;;;;;;5024598;28;20048;-43
2023/01/09 10:55:46;;;;;;;;;;;;;;;;;;5027106;28;20033;-44
2023/01/09 10:58:21;;;;;;;5.03;1.80;;;;;;;;;;5028161;28;19928;-46
2023/01/09 11:00:48;;;;;;;5.35;1.88;;;;;;;;;;5027991;28;20112;-49
2023/01/09 11:03:17;;;;;;;11.60;1.95;;;;;;;;;;5025016;28;20045;-46
2023/01/09 11:05:47;;;;;;;7.47;2.05;;;;;;;;;;5028205;28;20018;-49
2023/01/09 11:08:40;;;;;;;5.88;2.00;;;;;;;;;;5029161;28;20044;-52
2023/01/09 11:11:06;;;;;;;11.80;2.28;;;;;;;;;;5028578;28;20034;-44
2023/01/09 11:13:33;;;;;;;9.27;2.00;;;;;;;;;;5027149;28;20033;-51
2023/01/09 11:16:09;;;;;;;7.10;2.08;;;;;;;;;;5028282;28;20079;-46
2023/01/09 11:18:57;;;;;;;10.80;2.45;;;;;;;;;;5027651;28;20041;-46
2023/01/09 11:21:36;;;;;;;10.38;2.20;;;;;;;;;;5023672;28;20112;-46
2023/01/09 11:24:17;;;;;;;6.50;2.10;;;;;;;;;;5028936;28;21650;-47
2023/01/09 11:26:43;;;;;;;5.65;1.95;;;;;;;;;;5017626;28;20045;-44
2023/01/09 11:29:12;;;;;;;8.35;2.00;;;;;;;;;;5027011;28;20452;-48
2023/01/09 11:31:38;;;;;;;6.15;2.15;;;;;;;;;;5027605;28;20032;-44
2023/01/09 11:34:06;;;;;;;9.98;1.92;;;;;;;;;;5026099;28;20041;-44
2023/01/09 11:36:31;;;;;;;6.93;1.90;;;;;;;;;;5026446;28;20025;-45
2023/01/09 11:38:59;;;;;;;5.50;1.90;;;;;;;;;;5028588;28;20040;-45
2023/01/09 11:41:29;;;;;;;9.00;1.50;;;;;;;;;;5023233;28;20025;-44
2023/01/09 11:43:57;;;;;;;5.18;1.60;;;;;;;;;;5029191;28;20037;-53
2023/01/09 11:46:33;;;;;;;4.57;1.85;;;;;;;;;;5030606;28;20605;-45
2023/01/09 11:49:01;;;;;;;7.32;2.10;;;;;;;;;;5029899;28;20499;-45
2023/01/09 11:51:29;;;;;;;6.45;1.50;;;;;;;;;;5030117;28;20632;-47
2023/01/09 11:54:27;;;;;;;7.28;2.17;;;;;;;;;;5031062;28;20049;-44
2023/01/09 11:56:54;;;;;;;4.47;1.70;;;;;;;;;;5027726;28;20108;-47
2023/01/09 11:59:28;;;;;;;5.78;1.50;;;;;;;;;;5029015;28;20493;-46
2023/01/09 12:02:02;;;;;;;5.95;1.80;;;;;;;;;;5030671;28;20228;-46
2023/01/09 12:04:39;;;;;;;1.60;1.15;;;;;;;;;;5029578;28;20049;-46
2023/01/09 12:07:32;;;;;;;7.47;2.00;;;;;;;;;;5028198;28;20036;-44
2023/01/09 12:10:07;;;;;;;5.93;2.33;;;;;;;;;;5011012;28;20529;-47
2023/01/09 12:12:56;;;;;;;4.75;2.40;;;;;;;;;;5012539;28;20449;-50
2023/01/09 12:15:47;;;;;;;4.57;1.80;;;;;;;;;;5029904;28;20033;-52
2023/01/09 12:18:22;;;;;;;5.63;1.38;;;;;;;;;;5016970;28;20828;-43
2023/01/09 12:21:17;;;;;;;4.22;1.02;;;;;;;;;;5007436;28;20034;-52
2023/01/09 12:24:01;;;;;;;6.32;1.33;;;;;;;;;;5003366;28;20177;-47
2023/01/09 12:27:02;;;;;;;3.92;1.15;;;;;;;;;;4998651;28;20030;-47
2023/01/09 12:29:52;;;;;;;8.40;1.48;;;;;;;;;;5002811;28;20137;-50
2023/01/09 12:32:26;;;;;;;3.90;1.23;;;;;;;;;;4999676;28;20134;-46
2023/01/09 12:35:28;;;;;;;6.40;1.13;;;;;;;;;;5007054;28;20061;-45
2023/01/09 12:38:01;;;;;;;3.25;1.20;;;;;;;;;;5002120;28;20958;-50
2023/01/09 12:40:36;;;;;;;7.25;1.40;;;;;;;;;;5006568;28;20042;-45
2023/01/09 12:43:19;;;;;;;4.45;1.63;;;;;;;;;;4997434;28;20048;-46
2023/01/09 12:45:51;;;;;;;3.78;1.58;;;;;;;;;;5005123;28;20037;-48
2023/01/09 12:48:28;;;;;;;6.90;1.60;;;;;;;;;;5005078;28;20050;-49
2023/01/09 12:51:15;;;;;;;5.10;1.30;;;;;;;;;;5003160;28;20025;-49
2023/01/09 12:53:51;;;;;;;5.20;1.90;;;;;;;;;;5005191;28;20101;-48
2023/01/09 12:56:25;;;;;;;6.72;1.60;;;;;;;;;;4997783;28;20154;-44
2023/01/09 12:59:00;;;;;;;7.32;1.08;;;;;;;;;;4994983;28;20045;-46
2023/01/09 13:01:39;;;;;;;8.30;1.42;;;;;;;;;;5007692;28;20048;-47
2023/01/09 13:04:14;;;;;;;4.93;1.40;;;;;;;;;;5023013;28;20033;-49
2023/01/09 13:06:45;;;;;;;3.70;1.60;;;;;;;;;;5023780;28;20675;-45
2023/01/09 13:09:19;;;;;;;3.75;1.30;;;;;;;;;;5027739;28;20128;-42
2023/01/09 13:11:55;;;;;;;2.42;0.88;;;;;;;;;;5026121;28;20064;-47
2023/01/09 13:14:39;;;;;;;1.77;1.05;;;;;;;;;;5027721;28;20041;-50
2023/01/09 13:17:11;;;;;;;1.33;0.88;;;;;;;;;;5028932;28;20095;-50
2023/01/09 13:19:38;;;;;;;1.38;0.75;;;;;;;;;;5027613;28;20076;-47
2023/01/09 13:22:05;;;;;;;3.67;1.00;;;;;;;;;;5026881;28;20045;-50
2023/01/09 13:25:04;;;;;;;2.38;0.77;;;;;;;;;;5005900;28;20053;-48
2023/01/09 13:27:38;;;;;;;1.80;1.02;;;;;;;;;;5008318;28;20497;-46
2023/01/09 13:30:10;;;;;;;6.22;0.90;;;;;;;;;;5004781;28;20041;-47
2023/01/09 13:32:45;;;;;;;0.93;0.60;;;;;;;;;;5005776;28;20042;-47
2023/01/09 13:35:14;;;;;;;1.58;1.10;;;;;;;;;;5009635;28;20049;-45
2023/01/09 13:37:41;;;;;;;1.75;0.93;;;;;;;;;;5008914;28;20041;-47
2023/01/09 13:40:37;;;;;;;2.22;0.63;;;;;;;;;;5026056;28;20038;-47
2023/01/09 13:43:05;;;;;;;1.38;0.80;;;;;;;;;;5021924;28;20052;-47
2023/01/09 13:45:36;;;;;;;1.30;0.60;;;;;;;;;;5029026;28;20030;-45
2023/01/09 13:48:07;;;;;;;1.33;0.65;;;;;;;;;;5027601;28;20132;-46
2023/01/09 13:50:34;;;;;;;3.40;0.80;;;;;;;;;;5027996;28;20543;-50
2023/01/09 13:53:18;;;;;;;1.48;1.00;;;;;;;;;;5028667;28;20055;-49
2023/01/09 13:56:01;;;;;;;1.02;0.80;;;;;;;;;;5028176;28;20123;-48
2023/01/09 13:58:28;;;;;;;4.28;1.52;;;;;;;;;;5021200;28;20042;-49
2023/01/09 14:00:56;;;;;;;2.03;0.95;;;;;;;;;;5027063;28;20514;-47
2023/01/09 14:03:25;;;;;;;4.55;1.05;;;;;;;;;;5026638;28;20052;-44
2023/01/09 14:05:50;;;;;;;2.47;1.15;;;;;;;;;;5024319;28;20052;-47
2023/01/09 14:08:21;;;;;;;4.07;1.40;;;;;;;;;;5027547;28;20048;-50
2023/01/09 14:10:50;;;;;;;2.10;1.08;;;;;;;;;;5024904;28;22184;-49
2023/01/09 14:13:25;;;;;;;2.00;0.88;;;;;;;;;;5027391;28;20494;-48
2023/01/09 14:15:59;;;;;;;3.05;1.02;;;;;;;;;;5023694;28;20033;-48
2023/01/09 14:18:28;;;;;;;6.30;1.10;;;;;;;;;;5027858;28;20045;-42
2023/01/09 14:21:00;;;;;;;1.73;0.63;;;;;;;;;;5025980;28;20061;-45
2023/01/09 14:23:30;;;;;;;2.53;0.82;;;;;;;;;;5026096;28;20045;-45
2023/01/09 14:25:56;;;;;;;3.13;1.17;;;;;;;;;;5025565;28;20103;-44
2023/01/09 14:28:26;;;;;;;3.00;1.10;;;;;;;;;;5025366;28;20064;-50
2023/01/09 14:30:51;;;;;;;3.10;1.00;;;;;;;;;;5026637;28;20494;-49
2023/01/09 14:33:20;;;;;;;2.03;0.68;;;;;;;;;;5025621;28;20037;-44
2023/01/09 14:35:51;;;;;;;4.18;1.25;;;;;;;;;;5027609;28;20462;-50
2023/01/09 14:38:55;;;;;;;5.07;1.25;;;;;;;;;;5026326;28;20045;-46
2023/01/09 14:42:05;;;;;;;4.63;0.68;;;;;;;;;;5024956;28;20194;-44
2023/01/09 14:44:49;;;;;;;0.80;0.60;;;;;;;;;;5024106;28;20053;-46
2023/01/09 14:47:30;;;;;;;4.45;1.35;;;;;;;;;;5025092;28;20493;-45
2023/01/09 14:50:20;;;;;;;3.08;1.00;;;;;;;;;;5026798;28;20041;-46
2023/01/09 14:52:54;;;;;;;5.55;1.17;;;;;;;;;;5023117;28;20045;-44
2023/01/09 14:55:23;;;;;;;2.08;0.98;;;;;;;;;;5026264;28;20037;-46
2023/01/09 14:57:53;;;;;;;4.32;1.80;;;;;;;;;;5026616;28;20041;-44
2023/01/09 15:00:20;;;;;;;3.00;1.23;;;;;;;;;;5025739;28;20037;-49
2023/01/09 15:02:46;;;;;;;2.65;1.20;;;;;;;;;;5025649;28;20053;-50
2023/01/09 15:05:20;;;;;;;4.50;1.00;;;;;;;;;;5027470;28;20022;-49
2023/01/09 15:07:58;;;;;;;2.08;1.08;;;;;;;;;;5025827;28;20091;-42
2023/01/09 15:10:28;;;;;;;7.28;0.80;;;;;;;;;;5026098;28;20509;-44
2023/01/09 15:12:56;;;;;;;1.67;0.77;;;;;;;;;;5027924;28;20284;-48
2023/01/09 15:15:23;;;;;;;3.30;0.88;;;;;;;;;;5030657;28;20033;-48